This is the latest recevied weather packets stored in our database for station/object KF0WJA. If no packets are shown the sender has not sent any weather packets the latest 10 day(s).
| Time | Temp. | Humidity | Pressure | Rain* | Wind** | Luminosity | Snow |
|---|---|---|---|---|---|---|---|
| 1788637316 | 38.33° C | 35% | 1015.6 hPa | 0 mm | - | 681 W/m² | - |
| 1788637010 | 38.33° C | 36% | 1015.7 hPa | 0 mm | - | 668 W/m² | - |
| 1788636705 | 37.78° C | 37% | 1015.6 hPa | 0 mm | - | 671 W/m² | - |
| 1788636400 | 38.33° C | 37% | 1015.8 hPa | 0 mm | - | 700 W/m² | - |
| 1788636097 | 37.78° C | 37% | 1016 hPa | 0 mm | - | 704 W/m² | - |
| 1788635796 | 37.78° C | 37% | 1015.6 hPa | 0 mm | - | 702 W/m² | - |
| 1788635494 | 37.22° C | 39% | 1015.9 hPa | 0 mm | - | 718 W/m² | - |
| 1788635193 | 36.67° C | 40% | 1015.9 hPa | 0 mm | - | 452 W/m² | - |
| 1788634892 | 37.22° C | 39% | 1016.1 hPa | 0 mm | - | 323 W/m² | - |
| 1788634592 | 37.22° C | 39% | 1016.2 hPa | 0 mm | - | 714 W/m² | - |
| 1788634292 | 37.22° C | 39% | 1016.2 hPa | 0 mm | - | 703 W/m² | - |
| 1788633986 | 37.22° C | 39% | 1016.2 hPa | 0 mm | - | 732 W/m² | - |
| 1788633685 | 36.11° C | 40% | 1016.5 hPa | 0 mm | - | 380 W/m² | - |
| 1788633384 | 36.67° C | 39% | 1016.3 hPa | 0 mm | - | 219 W/m² | - |
| 1788633080 | 37.22° C | 40% | 1016.2 hPa | 0 mm | - | 696 W/m² | - |
| 1788632780 | 36.11° C | 40% | 1016.5 hPa | 0 mm | - | 687 W/m² | - |
| 1788632479 | 36.67° C | 40% | 1016.5 hPa | 0 mm | - | 113 W/m² | - |
| 1788632174 | 36.67° C | 40% | 1016.7 hPa | 0 mm | - | 680 W/m² | - |
| 1788631873 | 36.67° C | 40% | 1016.8 hPa | 0 mm | - | 670 W/m² | - |
| 1788631568 | 36.67° C | 40% | 1016.8 hPa | 0 mm | - | 669 W/m² | - |
| 1788631264 | 36.11° C | 40% | 1016.7 hPa | 0 mm | - | 657 W/m² | - |
| 1788630962 | 35° C | 44% | 1016.9 hPa | 0 mm | - | 660 W/m² | - |
| 1788630658 | 37.22° C | 41% | 1016.9 hPa | 0 mm | - | 110 W/m² | - |
| 1788630354 | 36.67° C | 40% | 1016.8 hPa | 0 mm | - | 678 W/m² | - |
| 1788630049 | 36.67° C | 40% | 1017 hPa | 0 mm | - | 690 W/m² | - |
* Rain latest hour (hover to see other rain measurements)
** Current wind speed in m/s (hover to see current wind gust speed)